CheckWX is a tool to help pilots better visualize weather data.  It is not intended as a substitute for an official pre-flight weather briefing.

08:52:52 UTC

KLWS METAR
Lewiston-Nez Perce County Airport
Lewiston, Idaho, USA
Current

57 mins ago

KLWS 170756Z AUTO 18003KT 10SM CLR 19/08 A2988 RMK AO2 SLP109 T01890078 402890144
Observed
Jul-17 @ 07:56 UTC
Wind
  • 180° at 3 KTS
Visibility
10 SM
Flight Rules
VFR
Cloud Levels
  • Clear skies
Temperature
19°C / 66°F
Dewpoint
C / 46°F
Humidity
49%
Altimeter
29.88" Hg
Pressure
1011.82 hPa
Previous

2 hours ago

KLWS 170656Z AUTO 21005KT 10SM CLR 21/08 A2987 RMK AO2 SLP106 T02060083
Observed
Jul-17 @ 06:56 UTC
Wind
  • 210° at 5 KTS
Visibility
10 SM
Flight Rules
VFR
Cloud Levels
  • Clear skies
Temperature
21°C / 70°F
Dewpoint
C / 46°F
Humidity
43%
Altimeter
29.87" Hg
Pressure
1011.52 hPa
Previous

3 hours ago

KLWS 170556Z AUTO 17005KT 10SM CLR 21/07 A2987 RMK AO2 SLP107 T02060067 10289 20206 50001
Observed
Jul-17 @ 05:56 UTC
Wind
  • 170° at 5 KTS
Visibility
10 SM
Flight Rules
VFR
Cloud Levels
  • Clear skies
Temperature
21°C / 70°F
Dewpoint
C / 45°F
Humidity
40%
Altimeter
29.87" Hg
Pressure
1011.52 hPa